TimeMDT,TemperatureF,Dew PointF,Humidity,Sea Level PressureIn,VisibilityMPH,Wind Direction,Wind SpeedMPH,Gust SpeedMPH,PrecipitationIn,Events,Conditions,WindDirDegrees,DateUTC
12:56 AM,45.0,37.0,74,29.79,10.0,SSE,9.2,-,N/A,,Mostly Cloudy,150,2012-10-16 06:56:00
1:56 AM,46.0,36.0,68,29.77,10.0,SSE,5.8,-,N/A,,Scattered Clouds,160,2012-10-16 07:56:00
2:56 AM,48.0,37.0,66,29.70,10.0,SE,4.6,-,N/A,,Overcast,140,2012-10-16 08:56:00
3:56 AM,50.0,35.6,58,29.72,10.0,ESE,4.6,-,N/A,,Overcast,110,2012-10-16 09:56:00
4:56 AM,54.0,36.0,51,29.60,10.0,Calm,Calm,-,N/A,,Overcast,0,2012-10-16 10:56:00
5:56 AM,60.8,37.4,42,29.64,10.0,SSW,21.9,-,N/A,,Mostly Cloudy,200,2012-10-16 11:56:00
6:56 AM,57.9,37.9,47,29.55,10.0,South,11.5,17.3,N/A,,Mostly Cloudy,170,2012-10-16 12:56:00
7:56 AM,57.0,37.9,49,29.51,10.0,SE,6.9,-,N/A,,Overcast,130,2012-10-16 13:56:00
8:56 AM,55.9,37.9,51,29.48,10.0,SE,5.8,-,N/A,,Scattered Clouds,140,2012-10-16 14:56:00
9:56 AM,62.6,37.4,39,29.51,10.0,WSW,25.3,34.5,N/A,,Mostly Cloudy,240,2012-10-16 15:56:00
10:56 AM,59.0,42.1,53,29.50,10.0,WSW,15.0,27.6,N/A,,Mostly Cloudy,240,2012-10-16 16:56:00
11:13 AM,53.6,42.8,67,29.60,10.0,NNW,25.3,36.8,N/A,,Overcast,340,2012-10-16 17:13:00
11:21 AM,48.2,44.6,87,29.61,1.8,NW,23.0,40.3,0.05,Rain,Rain,320,2012-10-16 17:21:00
11:28 AM,48.2,44.6,87,29.63,1.0,NNW,20.7,29.9,0.08,Rain,Rain,330,2012-10-16 17:28:00
11:31 AM,48.2,44.6,87,29.64,1.8,NW,19.6,29.9,0.09,Rain-Thunderstorm,Rain,320,2012-10-16 17:31:00
11:33 AM,48.2,44.6,87,29.63,2.0,NW,18.4,26.5,0.10,Rain-Thunderstorm,Rain,320,2012-10-16 17:33:00
11:41 AM,48.2,44.6,87,29.63,5.0,NW,15.0,31.1,0.12,Rain-Thunderstorm,Rain,310,2012-10-16 17:41:00
11:52 AM,48.2,44.6,87,29.59,8.0,Variable,5.8,-,0.13,Rain,Light Rain,0,2012-10-16 17:52:00
11:56 AM,48.9,44.1,83,29.56,10.0,Variable,3.5,-,0.13,Rain,Light Rain,0,2012-10-16 17:56:00
12:56 PM,50.0,42.1,74,29.54,10.0,East,4.6,-,0.00,,Overcast,90,2012-10-16 18:56:00
1:56 PM,54.0,43.0,66,29.52,10.0,NNW,11.5,-,N/A,,Partly Cloudy,340,2012-10-16 19:56:00
2:56 PM,59.0,37.0,44,29.50,10.0,West,23.0,28.8,N/A,,Mostly Cloudy,280,2012-10-16 20:56:00
3:56 PM,55.9,19.9,25,29.57,10.0,WNW,34.5,47.2,N/A,,Mostly Cloudy,290,2012-10-16 21:56:00
4:56 PM,51.8,17.6,26,29.67,10.0,West,31.1,41.4,N/A,,Clear,280,2012-10-16 22:56:00
5:56 PM,48.9,18.0,29,29.67,10.0,West,23.0,33.4,N/A,,Clear,270,2012-10-16 23:56:00
6:56 PM,45.0,21.0,39,29.73,10.0,West,23.0,32.2,N/A,,Clear,280,2012-10-17 00:56:00
7:56 PM,44.1,21.0,40,29.78,10.0,WNW,20.7,27.6,N/A,,Partly Cloudy,290,2012-10-17 01:56:00
8:56 PM,43.0,21.0,42,29.82,10.0,West,20.7,26.5,N/A,,Overcast,270,2012-10-17 02:56:00
9:56 PM,43.0,19.0,38,29.83,10.0,West,20.7,26.5,N/A,,Overcast,270,2012-10-17 03:56:00
10:56 PM,42.1,17.1,37,29.87,10.0,West,15.0,-,N/A,,Mostly Cloudy,260,2012-10-17 04:56:00
11:56 PM,42.1,17.1,37,29.91,10.0,West,18.4,23.0,N/A,,Overcast,260,2012-10-17 05:56:00